Terminal Aerodrome Forecast
Issued by NWS Newport/Morehead City, NC

Home | Current Version | Previous Version | Graphics & Text | Print | Product List | Glossary On
Versions: 1 2 3 4 5 6 7 8 9 10 11 12 13
116
FTUS42 KMHX 162336
TAFEWN
TAF
KEWN 162336Z 1700/1724 01009G18KT P6SM SCT015 OVC035
     FM170400 01009KT P6SM SCT070
     FM171500 02011G18KT P6SM SKC=

USA.gov is the U.S. government's official web portal to all federal, state and local government web resources and services.